sensor_id;sensor_type;location;lat;lon;timestamp;P1;durP1;ratioP1;P2;durP2;ratioP2
76986;SDS011;65922;50.086;8.598;2023-01-26T00:00:37;3.9;;;10.9;;
76986;SDS011;65922;50.086;8.598;2023-01-26T00:01:37;1.5;;;1.9;;
76986;SDS011;65922;50.086;8.598;2023-01-26T00:02:37;1.9;;;5;;
76986;SDS011;65922;50.086;8.598;2023-01-26T00:03:37;5.9;;;16.1;;
76986;SDS011;65922;50.086;8.598;2023-01-26T00:04:37;5.3;;;21.8;;
76986;SDS011;65922;50.086;8.598;2023-01-26T00:05:37;7.1;;;18.7;;
76986;SDS011;65922;50.086;8.598;2023-01-26T00:06:37;5.9;;;17.9;;
76986;SDS011;65922;50.086;8.598;2023-01-26T00:07:37;2.3;;;6.5;;
76986;SDS011;65922;50.086;8.598;2023-01-26T00:08:37;4.3;;;13;;
76986;SDS011;65922;50.086;8.598;2023-01-26T00:09:37;5.4;;;14;;
76986;SDS011;65922;50.086;8.598;2023-01-26T00:10:37;6.5;;;18.4;;
76986;SDS011;65922;50.086;8.598;2023-01-26T00:11:37;6.2;;;21.2;;
76986;SDS011;65922;50.086;8.598;2023-01-26T00:12:37;5.4;;;17;;
76986;SDS011;65922;50.086;8.598;2023-01-26T00:13:37;5;;;16.7;;
76986;SDS011;65922;50.086;8.598;2023-01-26T00:14:37;5.5;;;17;;
76986;SDS011;65922;50.086;8.598;2023-01-26T00:15:37;5.7;;;20.1;;
76986;SDS011;65922;50.086;8.598;2023-01-26T00:16:37;6.1;;;14.5;;
76986;SDS011;65922;50.086;8.598;2023-01-26T00:17:37;3.2;;;6.2;;
76986;SDS011;65922;50.086;8.598;2023-01-26T00:18:37;5;;;16.1;;
76986;SDS011;65922;50.086;8.598;2023-01-26T00:19:37;5.2;;;23.2;;
76986;SDS011;65922;50.086;8.598;2023-01-26T00:20:37;4.4;;;15.9;;
76986;SDS011;65922;50.086;8.598;2023-01-26T00:21:37;4.4;;;13.1;;
76986;SDS011;65922;50.086;8.598;2023-01-26T00:22:37;7.6;;;26.4;;
76986;SDS011;65922;50.086;8.598;2023-01-26T00:23:37;6.8;;;17.4;;
76986;SDS011;65922;50.086;8.598;2023-01-26T00:24:37;7.2;;;21.7;;
76986;SDS011;65922;50.086;8.598;2023-01-26T00:25:37;3.5;;;10.3;;
76986;SDS011;65922;50.086;8.598;2023-01-26T00:26:37;4.8;;;17.3;;
76986;SDS011;65922;50.086;8.598;2023-01-26T00:27:37;3.5;;;16.9;;
76986;SDS011;65922;50.086;8.598;2023-01-26T00:28:37;5.3;;;16.2;;
76986;SDS011;65922;50.086;8.598;2023-01-26T00:29:37;10;;;25.6;;
76986;SDS011;65922;50.086;8.598;2023-01-26T00:30:37;7.1;;;23.2;;
76986;SDS011;65922;50.086;8.598;2023-01-26T00:31:37;8.2;;;29.7;;
76986;SDS011;65922;50.086;8.598;2023-01-26T00:32:37;6.6;;;20.4;;
76986;SDS011;65922;50.086;8.598;2023-01-26T00:33:37;5.6;;;17.5;;
76986;SDS011;65922;50.086;8.598;2023-01-26T00:34:37;8;;;19.8;;
76986;SDS011;65922;50.086;8.598;2023-01-26T00:35:37;3.8;;;17.8;;
76986;SDS011;65922;50.086;8.598;2023-01-26T00:36:37;6;;;13.9;;
76986;SDS011;65922;50.086;8.598;2023-01-26T00:37:39;5.3;;;15.5;;
76986;SDS011;65922;50.086;8.598;2023-01-26T00:38:37;7.2;;;22;;
76986;SDS011;65922;50.086;8.598;2023-01-26T00:39:37;5.2;;;18.8;;
76986;SDS011;65922;50.086;8.598;2023-01-26T00:40:37;5.2;;;17.1;;
76986;SDS011;65922;50.086;8.598;2023-01-26T00:41:37;7;;;23.9;;
76986;SDS011;65922;50.086;8.598;2023-01-26T00:42:37;7;;;19.8;;
76986;SDS011;65922;50.086;8.598;2023-01-26T00:43:37;4.5;;;17.4;;
76986;SDS011;65922;50.086;8.598;2023-01-26T00:44:37;6.9;;;23.1;;
76986;SDS011;65922;50.086;8.598;2023-01-26T00:45:37;11;;;29;;
76986;SDS011;65922;50.086;8.598;2023-01-26T00:46:37;6;;;20.3;;
76986;SDS011;65922;50.086;8.598;2023-01-26T00:47:37;5.7;;;19.3;;
76986;SDS011;65922;50.086;8.598;2023-01-26T00:48:37;4.6;;;17.2;;
76986;SDS011;65922;50.086;8.598;2023-01-26T00:49:37;5.3;;;17;;
76986;SDS011;65922;50.086;8.598;2023-01-26T00:50:37;5.8;;;19.7;;
76986;SDS011;65922;50.086;8.598;2023-01-26T00:51:37;4.1;;;12.3;;
76986;SDS011;65922;50.086;8.598;2023-01-26T00:52:37;6.4;;;14.8;;
76986;SDS011;65922;50.086;8.598;2023-01-26T00:53:37;5.8;;;14.3;;
76986;SDS011;65922;50.086;8.598;2023-01-26T00:54:37;7.4;;;27.9;;
76986;SDS011;65922;50.086;8.598;2023-01-26T00:55:37;4.3;;;12;;
76986;SDS011;65922;50.086;8.598;2023-01-26T00:56:37;6;;;15.3;;
76986;SDS011;65922;50.086;8.598;2023-01-26T00:57:37;6;;;15.8;;
76986;SDS011;65922;50.086;8.598;2023-01-26T00:58:37;6.4;;;18.7;;
76986;SDS011;65922;50.086;8.598;2023-01-26T00:59:37;5.4;;;17.1;;
76986;SDS011;65922;50.086;8.598;2023-01-26T01:00:37;5.8;;;11.4;;
76986;SDS011;65922;50.086;8.598;2023-01-26T01:01:37;4.6;;;15.7;;
76986;SDS011;65922;50.086;8.598;2023-01-26T01:02:37;3.3;;;10.8;;
76986;SDS011;65922;50.086;8.598;2023-01-26T01:03:38;6.4;;;19.6;;
76986;SDS011;65922;50.086;8.598;2023-01-26T01:04:37;5.1;;;14.7;;
76986;SDS011;65922;50.086;8.598;2023-01-26T01:05:37;6.9;;;21;;
76986;SDS011;65922;50.086;8.598;2023-01-26T01:06:37;5.9;;;16.9;;
76986;SDS011;65922;50.086;8.598;2023-01-26T01:07:37;5.9;;;21;;
76986;SDS011;65922;50.086;8.598;2023-01-26T01:08:37;3.8;;;12;;
76986;SDS011;65922;50.086;8.598;2023-01-26T01:09:37;4.3;;;15.6;;
76986;SDS011;65922;50.086;8.598;2023-01-26T01:10:37;5.9;;;19.4;;
76986;SDS011;65922;50.086;8.598;2023-01-26T01:11:37;4.7;;;16.5;;
76986;SDS011;65922;50.086;8.598;2023-01-26T01:12:37;6;;;21.7;;
76986;SDS011;65922;50.086;8.598;2023-01-26T01:13:37;3.9;;;18.4;;
76986;SDS011;65922;50.086;8.598;2023-01-26T01:14:37;5.5;;;15.5;;
76986;SDS011;65922;50.086;8.598;2023-01-26T01:15:37;6.3;;;24.9;;
76986;SDS011;65922;50.086;8.598;2023-01-26T01:16:38;4.3;;;9.6;;
76986;SDS011;65922;50.086;8.598;2023-01-26T01:17:37;5.1;;;20.8;;
76986;SDS011;65922;50.086;8.598;2023-01-26T01:18:37;3.6;;;15.5;;
76986;SDS011;65922;50.086;8.598;2023-01-26T01:19:37;4.5;;;15;;
76986;SDS011;65922;50.086;8.598;2023-01-26T01:20:39;5.9;;;21.1;;
76986;SDS011;65922;50.086;8.598;2023-01-26T01:21:37;5.9;;;22.2;;
76986;SDS011;65922;50.086;8.598;2023-01-26T01:22:37;5.1;;;17.2;;
76986;SDS011;65922;50.086;8.598;2023-01-26T01:23:37;2.4;;;7.7;;
76986;SDS011;65922;50.086;8.598;2023-01-26T01:24:37;6.1;;;14.7;;
76986;SDS011;65922;50.086;8.598;2023-01-26T01:25:37;2.3;;;9.3;;
76986;SDS011;65922;50.086;8.598;2023-01-26T01:26:37;5.2;;;20.6;;
76986;SDS011;65922;50.086;8.598;2023-01-26T01:27:37;4.2;;;11.1;;
76986;SDS011;65922;50.086;8.598;2023-01-26T01:28:37;4.6;;;13.2;;
76986;SDS011;65922;50.086;8.598;2023-01-26T01:29:37;5.4;;;20.4;;
76986;SDS011;65922;50.086;8.598;2023-01-26T01:30:37;7.1;;;17.2;;
76986;SDS011;65922;50.086;8.598;2023-01-26T01:31:37;5.5;;;14.9;;
76986;SDS011;65922;50.086;8.598;2023-01-26T01:32:37;4.1;;;12.7;;
76986;SDS011;65922;50.086;8.598;2023-01-26T01:33:37;4.6;;;16;;
76986;SDS011;65922;50.086;8.598;2023-01-26T01:34:37;4.5;;;17;;
76986;SDS011;65922;50.086;8.598;2023-01-26T01:35:37;3.5;;;10.4;;
76986;SDS011;65922;50.086;8.598;2023-01-26T01:36:37;4.8;;;13.8;;
76986;SDS011;65922;50.086;8.598;2023-01-26T01:37:37;6.4;;;12.9;;
76986;SDS011;65922;50.086;8.598;2023-01-26T01:38:37;0.7;;;3.4;;
76986;SDS011;65922;50.086;8.598;2023-01-26T01:39:37;3.5;;;8.3;;
76986;SDS011;65922;50.086;8.598;2023-01-26T01:40:41;3.9;;;11.4;;
76986;SDS011;65922;50.086;8.598;2023-01-26T01:41:37;5.2;;;15.9;;
76986;SDS011;65922;50.086;8.598;2023-01-26T01:42:37;6;;;13.6;;
76986;SDS011;65922;50.086;8.598;2023-01-26T01:43:37;5.9;;;17.7;;
76986;SDS011;65922;50.086;8.598;2023-01-26T01:44:37;4.2;;;13.9;;
76986;SDS011;65922;50.086;8.598;2023-01-26T01:45:39;8.5;;;21.2;;
76986;SDS011;65922;50.086;8.598;2023-01-26T01:46:37;5;;;10.1;;
76986;SDS011;65922;50.086;8.598;2023-01-26T01:47:37;4.3;;;15.4;;
76986;SDS011;65922;50.086;8.598;2023-01-26T01:48:39;5.4;;;17.2;;
76986;SDS011;65922;50.086;8.598;2023-01-26T01:49:37;3.9;;;10.4;;
76986;SDS011;65922;50.086;8.598;2023-01-26T01:50:37;6.1;;;18.6;;
76986;SDS011;65922;50.086;8.598;2023-01-26T01:51:37;5;;;13.2;;
76986;SDS011;65922;50.086;8.598;2023-01-26T01:52:37;5.6;;;16;;
76986;SDS011;65922;50.086;8.598;2023-01-26T01:53:38;4.2;;;11.6;;
76986;SDS011;65922;50.086;8.598;2023-01-26T01:54:37;6.7;;;13.8;;
76986;SDS011;65922;50.086;8.598;2023-01-26T01:55:37;3.2;;;7.2;;
76986;SDS011;65922;50.086;8.598;2023-01-26T01:56:38;4.3;;;13.8;;
76986;SDS011;65922;50.086;8.598;2023-01-26T01:57:39;1.5;;;5.6;;
76986;SDS011;65922;50.086;8.598;2023-01-26T01:58:37;4.3;;;13.4;;
76986;SDS011;65922;50.086;8.598;2023-01-26T01:59:37;2.1;;;9.2;;
76986;SDS011;65922;50.086;8.598;2023-01-26T02:00:37;4.4;;;15.8;;
76986;SDS011;65922;50.086;8.598;2023-01-26T02:01:37;5.7;;;19.5;;
76986;SDS011;65922;50.086;8.598;2023-01-26T02:02:37;5.4;;;15;;
76986;SDS011;65922;50.086;8.598;2023-01-26T02:03:37;7.3;;;23.8;;
76986;SDS011;65922;50.086;8.598;2023-01-26T02:04:37;6.6;;;14.2;;
76986;SDS011;65922;50.086;8.598;2023-01-26T02:05:38;5.1;;;8.6;;
76986;SDS011;65922;50.086;8.598;2023-01-26T02:06:38;3.6;;;10;;
76986;SDS011;65922;50.086;8.598;2023-01-26T02:07:37;4.2;;;22;;
76986;SDS011;65922;50.086;8.598;2023-01-26T02:08:38;3.9;;;11.9;;
76986;SDS011;65922;50.086;8.598;2023-01-26T02:09:37;4.5;;;9.6;;
76986;SDS011;65922;50.086;8.598;2023-01-26T02:10:37;3.8;;;14.9;;
76986;SDS011;65922;50.086;8.598;2023-01-26T02:11:38;2.6;;;10.9;;
76986;SDS011;65922;50.086;8.598;2023-01-26T02:12:37;3;;;7.8;;
76986;SDS011;65922;50.086;8.598;2023-01-26T02:13:37;3.9;;;5.5;;
76986;SDS011;65922;50.086;8.598;2023-01-26T02:14:37;0.6;;;0.6;;
76986;SDS011;65922;50.086;8.598;2023-01-26T02:15:37;1.6;;;3.6;;
76986;SDS011;65922;50.086;8.598;2023-01-26T02:16:37;1.2;;;3.8;;
76986;SDS011;65922;50.086;8.598;2023-01-26T02:17:37;1.3;;;3.2;;
76986;SDS011;65922;50.086;8.598;2023-01-26T02:18:37;2.1;;;5.4;;
76986;SDS011;65922;50.086;8.598;2023-01-26T02:19:38;2.9;;;11.7;;
76986;SDS011;65922;50.086;8.598;2023-01-26T02:20:39;2.6;;;4;;
76986;SDS011;65922;50.086;8.598;2023-01-26T02:21:37;4.2;;;7.7;;
76986;SDS011;65922;50.086;8.598;2023-01-26T02:22:40;2;;;6.4;;
76986;SDS011;65922;50.086;8.598;2023-01-26T02:23:40;3.9;;;10.4;;
76986;SDS011;65922;50.086;8.598;2023-01-26T02:24:37;3.3;;;8.9;;
76986;SDS011;65922;50.086;8.598;2023-01-26T02:25:38;2.9;;;6.9;;
76986;SDS011;65922;50.086;8.598;2023-01-26T02:26:37;2.4;;;7.1;;
76986;SDS011;65922;50.086;8.598;2023-01-26T02:27:37;2.2;;;10.5;;
76986;SDS011;65922;50.086;8.598;2023-01-26T02:28:38;3;;;6.8;;
76986;SDS011;65922;50.086;8.598;2023-01-26T02:29:37;2.3;;;8.5;;
76986;SDS011;65922;50.086;8.598;2023-01-26T02:30:37;2.4;;;6.2;;
76986;SDS011;65922;50.086;8.598;2023-01-26T02:31:37;1.7;;;5.3;;
76986;SDS011;65922;50.086;8.598;2023-01-26T02:32:37;1.8;;;6.2;;
76986;SDS011;65922;50.086;8.598;2023-01-26T02:33:37;2.7;;;10;;
76986;SDS011;65922;50.086;8.598;2023-01-26T02:34:37;2.5;;;8.2;;
76986;SDS011;65922;50.086;8.598;2023-01-26T02:35:37;2.3;;;7.7;;
76986;SDS011;65922;50.086;8.598;2023-01-26T02:36:37;2.3;;;8.8;;
76986;SDS011;65922;50.086;8.598;2023-01-26T02:37:37;2.1;;;6.7;;
76986;SDS011;65922;50.086;8.598;2023-01-26T02:38:38;2.5;;;6.8;;
76986;SDS011;65922;50.086;8.598;2023-01-26T02:39:40;0.8;;;2.5;;
76986;SDS011;65922;50.086;8.598;2023-01-26T02:40:38;1.1;;;5;;
76986;SDS011;65922;50.086;8.598;2023-01-26T02:41:37;1.6;;;3.8;;
76986;SDS011;65922;50.086;8.598;2023-01-26T02:42:37;2.1;;;7.2;;
76986;SDS011;65922;50.086;8.598;2023-01-26T02:43:37;3.1;;;12.4;;
76986;SDS011;65922;50.086;8.598;2023-01-26T02:44:37;1.5;;;6.1;;
76986;SDS011;65922;50.086;8.598;2023-01-26T02:45:37;2.3;;;7.4;;
76986;SDS011;65922;50.086;8.598;2023-01-26T02:46:37;3.5;;;8.2;;
76986;SDS011;65922;50.086;8.598;2023-01-26T02:47:37;2.2;;;6.3;;
76986;SDS011;65922;50.086;8.598;2023-01-26T02:48:37;2.1;;;11.3;;
76986;SDS011;65922;50.086;8.598;2023-01-26T02:49:37;3;;;9.5;;
76986;SDS011;65922;50.086;8.598;2023-01-26T02:50:37;2.4;;;3.7;;
76986;SDS011;65922;50.086;8.598;2023-01-26T02:51:37;1.5;;;7.6;;
76986;SDS011;65922;50.086;8.598;2023-01-26T02:52:37;2.7;;;7.4;;
76986;SDS011;65922;50.086;8.598;2023-01-26T02:53:37;2.9;;;7.1;;
76986;SDS011;65922;50.086;8.598;2023-01-26T02:54:37;2.6;;;8.2;;
76986;SDS011;65922;50.086;8.598;2023-01-26T02:55:37;1.5;;;3.5;;
76986;SDS011;65922;50.086;8.598;2023-01-26T02:56:37;3.6;;;11.8;;
76986;SDS011;65922;50.086;8.598;2023-01-26T02:57:38;2.6;;;7.5;;
76986;SDS011;65922;50.086;8.598;2023-01-26T02:58:37;1.1;;;3.8;;
76986;SDS011;65922;50.086;8.598;2023-01-26T02:59:37;1.3;;;4.9;;
76986;SDS011;65922;50.086;8.598;2023-01-26T03:00:37;2.1;;;6.8;;
76986;SDS011;65922;50.086;8.598;2023-01-26T03:01:37;2.5;;;7.7;;
76986;SDS011;65922;50.086;8.598;2023-01-26T03:02:37;1.9;;;6.5;;
76986;SDS011;65922;50.086;8.598;2023-01-26T03:03:37;2.8;;;8.8;;
76986;SDS011;65922;50.086;8.598;2023-01-26T03:04:37;1.8;;;7.3;;
76986;SDS011;65922;50.086;8.598;2023-01-26T03:05:37;2.2;;;7;;
76986;SDS011;65922;50.086;8.598;2023-01-26T03:06:37;1.7;;;6.9;;
76986;SDS011;65922;50.086;8.598;2023-01-26T03:07:37;2.5;;;8.2;;
76986;SDS011;65922;50.086;8.598;2023-01-26T03:08:37;2.4;;;6.5;;
76986;SDS011;65922;50.086;8.598;2023-01-26T03:09:37;2;;;5.5;;
76986;SDS011;65922;50.086;8.598;2023-01-26T03:10:37;1.4;;;7.2;;
76986;SDS011;65922;50.086;8.598;2023-01-26T03:11:37;2.1;;;4.4;;
76986;SDS011;65922;50.086;8.598;2023-01-26T03:12:37;2.5;;;7.6;;
76986;SDS011;65922;50.086;8.598;2023-01-26T03:13:37;2.7;;;10.8;;
76986;SDS011;65922;50.086;8.598;2023-01-26T03:14:37;2.2;;;7.7;;
76986;SDS011;65922;50.086;8.598;2023-01-26T03:15:37;1.6;;;5.3;;
76986;SDS011;65922;50.086;8.598;2023-01-26T03:16:37;2.4;;;7.8;;
76986;SDS011;65922;50.086;8.598;2023-01-26T03:17:37;2.9;;;10.2;;
76986;SDS011;65922;50.086;8.598;2023-01-26T03:18:37;2.3;;;5.5;;
76986;SDS011;65922;50.086;8.598;2023-01-26T03:19:37;2.4;;;6.3;;
76986;SDS011;65922;50.086;8.598;2023-01-26T03:20:37;1.6;;;7.5;;
76986;SDS011;65922;50.086;8.598;2023-01-26T03:21:37;1.9;;;8.4;;
76986;SDS011;65922;50.086;8.598;2023-01-26T03:22:37;1.4;;;7.9;;
76986;SDS011;65922;50.086;8.598;2023-01-26T03:23:37;1.7;;;5;;
76986;SDS011;65922;50.086;8.598;2023-01-26T03:24:37;1;;;4.7;;
76986;SDS011;65922;50.086;8.598;2023-01-26T03:25:37;1;;;3.8;;
76986;SDS011;65922;50.086;8.598;2023-01-26T03:26:38;3.1;;;6.9;;
76986;SDS011;65922;50.086;8.598;2023-01-26T03:27:38;4.3;;;9.3;;
76986;SDS011;65922;50.086;8.598;2023-01-26T03:28:37;1.8;;;4.5;;
76986;SDS011;65922;50.086;8.598;2023-01-26T03:29:37;2.6;;;9;;
76986;SDS011;65922;50.086;8.598;2023-01-26T03:30:37;2.7;;;7;;
76986;SDS011;65922;50.086;8.598;2023-01-26T03:31:37;2.8;;;5.5;;
76986;SDS011;65922;50.086;8.598;2023-01-26T03:32:37;2.3;;;6.2;;
76986;SDS011;65922;50.086;8.598;2023-01-26T03:33:37;2.3;;;5.3;;
76986;SDS011;65922;50.086;8.598;2023-01-26T03:34:37;2.4;;;6.9;;
76986;SDS011;65922;50.086;8.598;2023-01-26T03:35:37;1.4;;;4.6;;
76986;SDS011;65922;50.086;8.598;2023-01-26T03:36:37;2.5;;;6.5;;
76986;SDS011;65922;50.086;8.598;2023-01-26T03:37:37;2.5;;;6.6;;
76986;SDS011;65922;50.086;8.598;2023-01-26T03:38:37;2.1;;;6.4;;
76986;SDS011;65922;50.086;8.598;2023-01-26T03:39:37;1.9;;;6.2;;
76986;SDS011;65922;50.086;8.598;2023-01-26T03:40:37;2.2;;;5.4;;
76986;SDS011;65922;50.086;8.598;2023-01-26T03:41:37;2.3;;;7.8;;
76986;SDS011;65922;50.086;8.598;2023-01-26T03:42:37;1.3;;;5.4;;
76986;SDS011;65922;50.086;8.598;2023-01-26T03:43:37;1.6;;;5.2;;
76986;SDS011;65922;50.086;8.598;2023-01-26T03:44:37;2;;;3.9;;
76986;SDS011;65922;50.086;8.598;2023-01-26T03:45:37;1.8;;;6.7;;
76986;SDS011;65922;50.086;8.598;2023-01-26T03:46:37;1.2;;;5.9;;
76986;SDS011;65922;50.086;8.598;2023-01-26T03:47:37;2;;;4.9;;
76986;SDS011;65922;50.086;8.598;2023-01-26T03:48:37;2.3;;;5.2;;
76986;SDS011;65922;50.086;8.598;2023-01-26T03:49:37;1.3;;;4.6;;
76986;SDS011;65922;50.086;8.598;2023-01-26T03:50:37;2.9;;;8.1;;
76986;SDS011;65922;50.086;8.598;2023-01-26T03:51:38;1.9;;;6.1;;
76986;SDS011;65922;50.086;8.598;2023-01-26T03:52:37;1.9;;;7;;
76986;SDS011;65922;50.086;8.598;2023-01-26T03:53:37;2.5;;;5.8;;
76986;SDS011;65922;50.086;8.598;2023-01-26T03:54:37;1.7;;;4.5;;
76986;SDS011;65922;50.086;8.598;2023-01-26T03:55:37;2.4;;;6.8;;
76986;SDS011;65922;50.086;8.598;2023-01-26T03:56:38;1.6;;;5.9;;
76986;SDS011;65922;50.086;8.598;2023-01-26T03:57:37;3;;;6.5;;
76986;SDS011;65922;50.086;8.598;2023-01-26T03:58:37;2.3;;;6.9;;
76986;SDS011;65922;50.086;8.598;2023-01-26T03:59:37;1.5;;;4.2;;
76986;SDS011;65922;50.086;8.598;2023-01-26T04:00:37;1.5;;;5.4;;
76986;SDS011;65922;50.086;8.598;2023-01-26T04:01:39;1.3;;;4.6;;
76986;SDS011;65922;50.086;8.598;2023-01-26T04:02:37;3.3;;;4.7;;
76986;SDS011;65922;50.086;8.598;2023-01-26T04:03:37;1.8;;;5.5;;
76986;SDS011;65922;50.086;8.598;2023-01-26T04:04:37;1.6;;;3.4;;
76986;SDS011;65922;50.086;8.598;2023-01-26T04:05:37;1.1;;;3.3;;
76986;SDS011;65922;50.086;8.598;2023-01-26T04:06:37;1.7;;;5.1;;
76986;SDS011;65922;50.086;8.598;2023-01-26T04:07:37;1.9;;;6.6;;
76986;SDS011;65922;50.086;8.598;2023-01-26T04:08:37;0.4;;;2.8;;
76986;SDS011;65922;50.086;8.598;2023-01-26T04:09:37;1.6;;;4.8;;
76986;SDS011;65922;50.086;8.598;2023-01-26T04:10:37;1.5;;;5.9;;
76986;SDS011;65922;50.086;8.598;2023-01-26T04:11:37;1.1;;;2.6;;
76986;SDS011;65922;50.086;8.598;2023-01-26T04:12:37;1.4;;;6.6;;
76986;SDS011;65922;50.086;8.598;2023-01-26T04:13:37;1.7;;;7.7;;
76986;SDS011;65922;50.086;8.598;2023-01-26T04:14:37;2.8;;;9;;
76986;SDS011;65922;50.086;8.598;2023-01-26T04:15:37;1;;;3.4;;
76986;SDS011;65922;50.086;8.598;2023-01-26T04:16:37;1.8;;;6.7;;
76986;SDS011;65922;50.086;8.598;2023-01-26T04:17:37;3.2;;;9.7;;
76986;SDS011;65922;50.086;8.598;2023-01-26T04:18:37;3.2;;;9.4;;
76986;SDS011;65922;50.086;8.598;2023-01-26T04:19:37;3.2;;;10.5;;
76986;SDS011;65922;50.086;8.598;2023-01-26T04:20:37;1.3;;;3;;
76986;SDS011;65922;50.086;8.598;2023-01-26T04:21:37;2.5;;;6.7;;
76986;SDS011;65922;50.086;8.598;2023-01-26T04:22:37;2.5;;;8.1;;
76986;SDS011;65922;50.086;8.598;2023-01-26T04:23:37;2.4;;;8.7;;
76986;SDS011;65922;50.086;8.598;2023-01-26T04:24:37;2.3;;;11.2;;
76986;SDS011;65922;50.086;8.598;2023-01-26T04:25:37;2.7;;;6.4;;
76986;SDS011;65922;50.086;8.598;2023-01-26T04:26:37;2.7;;;7.7;;
76986;SDS011;65922;50.086;8.598;2023-01-26T04:27:37;2.6;;;8.7;;
76986;SDS011;65922;50.086;8.598;2023-01-26T04:28:37;2;;;5;;
76986;SDS011;65922;50.086;8.598;2023-01-26T04:29:37;1.9;;;5.8;;
76986;SDS011;65922;50.086;8.598;2023-01-26T04:30:37;1.6;;;6.1;;
76986;SDS011;65922;50.086;8.598;2023-01-26T04:31:37;2.8;;;11.3;;
76986;SDS011;65922;50.086;8.598;2023-01-26T04:32:37;1.4;;;10;;
76986;SDS011;65922;50.086;8.598;2023-01-26T04:33:37;1.2;;;6.4;;
76986;SDS011;65922;50.086;8.598;2023-01-26T04:34:37;2.3;;;5.1;;
76986;SDS011;65922;50.086;8.598;2023-01-26T04:35:37;2;;;4.6;;
76986;SDS011;65922;50.086;8.598;2023-01-26T04:36:37;1.2;;;3.5;;
76986;SDS011;65922;50.086;8.598;2023-01-26T04:37:37;1.5;;;4.4;;
76986;SDS011;65922;50.086;8.598;2023-01-26T04:38:37;1.7;;;10.7;;
76986;SDS011;65922;50.086;8.598;2023-01-26T04:39:37;2;;;9.2;;
76986;SDS011;65922;50.086;8.598;2023-01-26T04:40:37;1.4;;;4.3;;
76986;SDS011;65922;50.086;8.598;2023-01-26T04:41:37;2.3;;;6.8;;
76986;SDS011;65922;50.086;8.598;2023-01-26T04:42:37;1.9;;;5;;
76986;SDS011;65922;50.086;8.598;2023-01-26T04:43:37;1.1;;;3.6;;
76986;SDS011;65922;50.086;8.598;2023-01-26T04:44:37;1.8;;;4.6;;
76986;SDS011;65922;50.086;8.598;2023-01-26T04:45:37;1.1;;;4.9;;
76986;SDS011;65922;50.086;8.598;2023-01-26T04:46:37;1.1;;;8.2;;
76986;SDS011;65922;50.086;8.598;2023-01-26T04:47:37;1.4;;;4.4;;
76986;SDS011;65922;50.086;8.598;2023-01-26T04:48:37;1.4;;;5.6;;
76986;SDS011;65922;50.086;8.598;2023-01-26T04:49:37;2.1;;;4.4;;
76986;SDS011;65922;50.086;8.598;2023-01-26T04:50:37;2.4;;;10.5;;
76986;SDS011;65922;50.086;8.598;2023-01-26T04:51:37;3.1;;;7.6;;
76986;SDS011;65922;50.086;8.598;2023-01-26T04:52:37;1.8;;;7.3;;
76986;SDS011;65922;50.086;8.598;2023-01-26T04:53:37;2.2;;;5.7;;
76986;SDS011;65922;50.086;8.598;2023-01-26T04:54:38;2.8;;;6.6;;
76986;SDS011;65922;50.086;8.598;2023-01-26T04:55:37;2.7;;;7.7;;
76986;SDS011;65922;50.086;8.598;2023-01-26T04:56:37;2.9;;;6.2;;
76986;SDS011;65922;50.086;8.598;2023-01-26T04:57:37;2.4;;;7.6;;
76986;SDS011;65922;50.086;8.598;2023-01-26T04:58:37;4.5;;;11.1;;
76986;SDS011;65922;50.086;8.598;2023-01-26T04:59:37;2.4;;;6.1;;
76986;SDS011;65922;50.086;8.598;2023-01-26T05:00:37;2.1;;;8;;
76986;SDS011;65922;50.086;8.598;2023-01-26T05:01:37;2;;;4.7;;
76986;SDS011;65922;50.086;8.598;2023-01-26T05:02:37;1.6;;;4.5;;
76986;SDS011;65922;50.086;8.598;2023-01-26T05:03:37;2;;;4.7;;
76986;SDS011;65922;50.086;8.598;2023-01-26T05:04:37;2.9;;;6;;
76986;SDS011;65922;50.086;8.598;2023-01-26T05:05:37;2.1;;;8.6;;
76986;SDS011;65922;50.086;8.598;2023-01-26T05:06:37;1.4;;;8.7;;
76986;SDS011;65922;50.086;8.598;2023-01-26T05:07:37;1.7;;;6.2;;
76986;SDS011;65922;50.086;8.598;2023-01-26T05:08:37;1.5;;;6.4;;
76986;SDS011;65922;50.086;8.598;2023-01-26T05:09:37;1.6;;;7.7;;
76986;SDS011;65922;50.086;8.598;2023-01-26T05:10:37;1.5;;;4.7;;
76986;SDS011;65922;50.086;8.598;2023-01-26T05:11:37;1.3;;;3.3;;
76986;SDS011;65922;50.086;8.598;2023-01-26T05:12:37;1.9;;;6.5;;
76986;SDS011;65922;50.086;8.598;2023-01-26T05:13:37;2.1;;;4.3;;
76986;SDS011;65922;50.086;8.598;2023-01-26T05:14:37;1.9;;;3.4;;
76986;SDS011;65922;50.086;8.598;2023-01-26T05:15:37;2.3;;;5.4;;
76986;SDS011;65922;50.086;8.598;2023-01-26T05:16:37;2.5;;;6.9;;
76986;SDS011;65922;50.086;8.598;2023-01-26T05:17:37;1.9;;;3.5;;
76986;SDS011;65922;50.086;8.598;2023-01-26T05:18:37;2.4;;;6.8;;
76986;SDS011;65922;50.086;8.598;2023-01-26T05:19:37;2;;;7.1;;
76986;SDS011;65922;50.086;8.598;2023-01-26T05:20:37;2.3;;;7.8;;
76986;SDS011;65922;50.086;8.598;2023-01-26T05:21:37;2.4;;;6.1;;
76986;SDS011;65922;50.086;8.598;2023-01-26T05:22:37;2.9;;;7;;
76986;SDS011;65922;50.086;8.598;2023-01-26T05:23:37;3.5;;;7.1;;
76986;SDS011;65922;50.086;8.598;2023-01-26T05:24:37;2.1;;;6.9;;
76986;SDS011;65922;50.086;8.598;2023-01-26T05:25:37;2.6;;;6.9;;
76986;SDS011;65922;50.086;8.598;2023-01-26T05:26:37;2.6;;;11.3;;
76986;SDS011;65922;50.086;8.598;2023-01-26T05:27:37;2.9;;;8.3;;
76986;SDS011;65922;50.086;8.598;2023-01-26T05:28:37;3.2;;;8.3;;
76986;SDS011;65922;50.086;8.598;2023-01-26T05:29:37;4.4;;;9.5;;
76986;SDS011;65922;50.086;8.598;2023-01-26T05:30:37;2.3;;;7.1;;
76986;SDS011;65922;50.086;8.598;2023-01-26T05:31:37;2.7;;;6.6;;
76986;SDS011;65922;50.086;8.598;2023-01-26T05:32:37;3.8;;;13.4;;
76986;SDS011;65922;50.086;8.598;2023-01-26T05:33:37;5.8;;;11.9;;
76986;SDS011;65922;50.086;8.598;2023-01-26T05:34:37;3.1;;;9.4;;
76986;SDS011;65922;50.086;8.598;2023-01-26T05:35:37;2.4;;;5.7;;
76986;SDS011;65922;50.086;8.598;2023-01-26T05:36:37;2;;;8.5;;
76986;SDS011;65922;50.086;8.598;2023-01-26T05:37:37;2.3;;;6.4;;
76986;SDS011;65922;50.086;8.598;2023-01-26T05:38:37;1.8;;;10.3;;
76986;SDS011;65922;50.086;8.598;2023-01-26T05:39:37;1.2;;;5.2;;
76986;SDS011;65922;50.086;8.598;2023-01-26T05:40:37;2.6;;;10.4;;
76986;SDS011;65922;50.086;8.598;2023-01-26T05:41:37;2.9;;;7.1;;
76986;SDS011;65922;50.086;8.598;2023-01-26T05:42:37;2.3;;;7.4;;
76986;SDS011;65922;50.086;8.598;2023-01-26T05:43:37;2.4;;;5.4;;
76986;SDS011;65922;50.086;8.598;2023-01-26T05:44:37;2.2;;;5.3;;
76986;SDS011;65922;50.086;8.598;2023-01-26T05:45:37;3.4;;;6.6;;
76986;SDS011;65922;50.086;8.598;2023-01-26T05:46:37;3.1;;;6.7;;
76986;SDS011;65922;50.086;8.598;2023-01-26T05:47:37;2.3;;;9.3;;
76986;SDS011;65922;50.086;8.598;2023-01-26T05:48:37;3.2;;;12;;
76986;SDS011;65922;50.086;8.598;2023-01-26T05:49:37;2.4;;;7.3;;
76986;SDS011;65922;50.086;8.598;2023-01-26T05:50:37;1.6;;;4.4;;
76986;SDS011;65922;50.086;8.598;2023-01-26T05:51:37;2.5;;;7.3;;
76986;SDS011;65922;50.086;8.598;2023-01-26T05:52:37;2;;;4.5;;
76986;SDS011;65922;50.086;8.598;2023-01-26T05:53:37;2.2;;;4.7;;
76986;SDS011;65922;50.086;8.598;2023-01-26T05:54:37;2.9;;;6.2;;
76986;SDS011;65922;50.086;8.598;2023-01-26T05:55:37;2.3;;;7.2;;
76986;SDS011;65922;50.086;8.598;2023-01-26T05:56:37;3.8;;;9.3;;
76986;SDS011;65922;50.086;8.598;2023-01-26T05:57:37;4.3;;;10.9;;
76986;SDS011;65922;50.086;8.598;2023-01-26T05:58:37;3.7;;;12.6;;
76986;SDS011;65922;50.086;8.598;2023-01-26T05:59:37;2.3;;;5.8;;
76986;SDS011;65922;50.086;8.598;2023-01-26T06:00:37;3.7;;;6.4;;
76986;SDS011;65922;50.086;8.598;2023-01-26T06:01:37;3.5;;;11;;
76986;SDS011;65922;50.086;8.598;2023-01-26T06:02:37;2.3;;;4.2;;
76986;SDS011;65922;50.086;8.598;2023-01-26T06:03:37;1.6;;;3.4;;
76986;SDS011;65922;50.086;8.598;2023-01-26T06:04:37;2.5;;;5.9;;
76986;SDS011;65922;50.086;8.598;2023-01-26T06:05:37;2.5;;;8;;
76986;SDS011;65922;50.086;8.598;2023-01-26T06:06:37;2.4;;;6.8;;
76986;SDS011;65922;50.086;8.598;2023-01-26T06:07:37;1.7;;;4.5;;
76986;SDS011;65922;50.086;8.598;2023-01-26T06:08:37;1.1;;;3.4;;
76986;SDS011;65922;50.086;8.598;2023-01-26T06:09:37;4.3;;;6.4;;
76986;SDS011;65922;50.086;8.598;2023-01-26T06:10:37;1.5;;;5.7;;
76986;SDS011;65922;50.086;8.598;2023-01-26T06:11:37;1.9;;;7.1;;
76986;SDS011;65922;50.086;8.598;2023-01-26T06:12:37;3.1;;;7.9;;